London, United Kingdom
Current Conditions -  °F | °C
As of 12:20 PM on Monday 26 Jan 2015 (Local Time) from EGLC Reporting Station
Scattered Clouds Scattered Clouds  
Wind Chill: 10°   Ceiling: Unl
Heat Index: 10°   Visibility: 6mi
Dew Point:   Wind: 14mph
Humidity: 66%   Direction: 310°NW
Pressure: 30.21"   Gusts: NA
Location:  51.5°N, 0.13°W
Report Text: EGLC 261220Z 31012KT 9999 SCT030 10/04 Q1023
Loading
Personal Weather Stations






























Interactive Weather Map New forecast layout! Learn more

10-Day Weather Forecast

Advertisements
Track Severe Weather on mobile